Weather at Hořín Heliport

Public forecast

Using degrees Celsius for public forecast. Weather courtesy of forecast.io.

Closest aviation weather report (METAR) to Hořín Heliport

Report is more than 6 hours old.

Closest report is Vodochody Airport, 7.8 nm (14.5 km) SSW. Retrieved 2020/10/23 13:00 UTC (11 hours ago):

LKVO 231300Z 19004KT 9999 SCT017 BKN072 15/13 Q1014

Closest aviation forecast (TAF) to Hořín Heliport

Closest forecast is Kbely Air Base, 14.0 nm (25.9 km) SSE. Retrieved 2020/10/23 18:00 UTC (6 hours ago):

TAF LKKB 231700Z 2318/2418 20010KT CAVOK TEMPO 2318/2405 27012KT RA SCT010 BKN020 BECMG 2412/2414 22005KT